Time,TemperatureF,DewpointF,PressureIn,WindDirection,WindDirectionDegrees,WindSpeedMPH,WindSpeedGustMPH,Humidity,HourlyPrecipIn,Conditions,Clouds,dailyrainin,SoftwareType,DateUTC
2013-09-07 07:41:00,66.9,59.5,29.97,ENE,68,0.0,0.0,77,0.00,,---,0.00,VWS V14.01,2013-09-06 21:41:00,
2013-09-07 07:42:00,66.9,59.5,29.97,NNW,338,4.9,4.9,77,0.00,,---,0.00,VWS V14.01,2013-09-06 21:42:00,
2013-09-07 07:43:00,68.4,48.5,29.94,NNW,338,4.9,4.9,49,0.00,,---,0.00,VWS V14.01,2013-09-06 21:43:00,
2013-09-07 07:44:00,68.4,48.5,29.94,NW,315,4.3,4.9,49,0.00,,---,0.00,VWS V14.01,2013-09-06 21:44:00,
2013-09-07 07:45:00,68.4,48.5,29.94,NW,315,4.3,4.3,49,0.00,,---,0.00,VWS V14.01,2013-09-06 21:45:00,
2013-09-07 07:46:00,68.4,48.5,29.94,NNE,22,7.2,7.2,49,0.00,,---,0.00,VWS V14.01,2013-09-06 21:46:00,
2013-09-07 07:47:00,68.4,48.5,29.94,NNE,22,7.2,7.2,49,0.00,,---,0.00,VWS V14.01,2013-09-06 21:47:00,
2013-09-07 07:48:00,68.4,49.0,29.94,NW,315,7.8,7.8,50,0.00,,---,0.00,VWS V14.01,2013-09-06 21:48:00,
2013-09-07 07:49:00,68.4,49.0,29.94,NW,315,7.8,7.8,50,0.00,,---,0.00,VWS V14.01,2013-09-06 21:49:00,
2013-09-07 07:50:00,68.4,48.5,29.94,West,270,7.6,7.8,49,0.00,,---,0.00,VWS V14.01,2013-09-06 21:50:00,
2013-09-07 07:51:00,68.5,49.2,29.94,West,270,6.3,6.3,50,0.00,,---,0.00,VWS V14.01,2013-09-06 21:51:00,
2013-09-07 07:52:00,68.5,49.2,29.94,NW,315,9.8,9.8,50,0.00,,---,0.00,VWS V14.01,2013-09-06 21:52:00,
2013-09-07 07:53:00,68.5,48.6,29.94,NW,315,9.8,9.8,49,0.00,,---,0.00,VWS V14.01,2013-09-06 21:53:00,
2013-09-07 07:54:00,68.5,48.6,29.94,NW,315,9.8,9.8,49,0.00,,---,0.00,VWS V14.01,2013-09-06 21:54:00,
2013-09-07 07:55:00,68.5,49.2,29.94,West,270,2.9,9.8,50,0.00,,---,0.00,VWS V14.01,2013-09-06 21:55:00,
2013-09-07 07:56:00,68.5,49.2,29.94,West,270,7.8,7.8,50,0.00,,---,0.00,VWS V14.01,2013-09-06 21:56:00,
2013-09-07 07:57:00,68.5,49.2,29.94,West,270,7.8,7.8,50,0.00,,---,0.00,VWS V14.01,2013-09-06 21:57:00,
2013-09-07 07:58:00,68.5,49.2,29.94,NNW,338,8.1,8.1,50,0.00,,---,0.00,VWS V14.01,2013-09-06 21:58:00,
2013-09-07 07:59:00,68.5,49.2,29.94,West,270,3.8,8.1,50,0.00,,---,0.00,VWS V14.01,2013-09-06 21:59:00,
2013-09-07 08:00:00,68.5,48.6,29.94,West,270,3.8,3.8,49,0.00,,---,0.00,VWS V14.01,2013-09-06 22:00:00,
2013-09-07 08:01:00,68.5,48.6,29.94,WNW,292,3.1,4.3,49,0.00,,---,0.00,VWS V14.01,2013-09-06 22:01:00,
2013-09-07 08:02:00,68.5,48.6,29.94,WNW,292,3.1,4.3,49,0.00,,---,0.00,VWS V14.01,2013-09-06 22:02:00,
2013-09-07 08:03:00,68.5,48.6,29.94,WNW,292,3.1,3.1,49,0.00,,---,0.00,VWS V14.01,2013-09-06 22:03:00,
2013-09-07 08:04:00,68.7,48.8,29.94,NW,315,7.4,7.4,49,0.00,,---,0.00,VWS V14.01,2013-09-06 22:04:00,
2013-09-07 08:05:00,68.7,48.8,29.94,NW,315,10.3,10.3,49,0.00,,---,0.00,VWS V14.01,2013-09-06 22:05:00,
2013-09-07 08:06:00,68.7,48.8,29.94,West,270,4.3,4.3,49,0.00,,---,0.00,VWS V14.01,2013-09-06 22:06:00,
2013-09-07 08:07:00,68.7,48.8,29.94,West,270,4.3,4.3,49,0.00,,---,0.00,VWS V14.01,2013-09-06 22:07:00,
2013-09-07 08:08:00,68.7,48.8,29.94,NW,315,4.0,4.3,49,0.00,,---,0.00,VWS V14.01,2013-09-06 22:08:00,
2013-09-07 08:09:00,68.7,48.8,29.94,WSW,248,3.6,4.0,49,0.00,,---,0.00,VWS V14.01,2013-09-06 22:09:00,
2013-09-07 08:10:00,68.7,48.8,29.94,WSW,248,3.6,3.6,49,0.00,,---,0.00,VWS V14.01,2013-09-06 22:10:00,
2013-09-07 08:11:00,68.7,48.8,29.94,WNW,292,4.0,4.0,49,0.00,,---,0.00,VWS V14.01,2013-09-06 22:11:00,
2013-09-07 08:12:00,68.7,48.8,29.94,WNW,292,4.0,4.0,49,0.00,,---,0.00,VWS V14.01,2013-09-06 22:12:00,
2013-09-07 08:13:00,68.7,48.8,29.94,NNW,338,3.8,4.0,49,0.00,,---,0.00,VWS V14.01,2013-09-06 22:13:00,
2013-09-07 08:14:00,68.7,48.8,29.94,NW,315,2.2,3.8,49,0.00,,---,0.00,VWS V14.01,2013-09-06 22:14:00,
2013-09-07 08:15:00,68.7,48.8,29.94,NW,315,4.7,4.7,49,0.00,,---,0.00,VWS V14.01,2013-09-06 22:15:00,
2013-09-07 08:16:00,68.7,48.8,29.94,NNW,338,4.3,4.3,49,0.00,,---,0.00,VWS V14.01,2013-09-06 22:16:00,
2013-09-07 08:17:00,68.7,48.8,29.94,NNW,338,4.3,4.3,49,0.00,,---,0.00,VWS V14.01,2013-09-06 22:17:00,
2013-09-07 08:18:00,68.7,48.8,29.94,WNW,292,5.8,5.8,49,0.00,,---,0.00,VWS V14.01,2013-09-06 22:18:00,
2013-09-07 08:19:00,68.7,48.8,29.94,NW,315,2.9,5.8,49,0.00,,---,0.00,VWS V14.01,2013-09-06 22:19:00,
2013-09-07 08:20:00,68.7,48.8,29.94,WNW,292,6.9,6.9,49,0.00,,---,0.00,VWS V14.01,2013-09-06 22:20:00,
2013-09-07 08:21:00,68.9,49.5,29.94,NNW,338,7.6,7.6,50,0.00,,---,0.00,VWS V14.01,2013-09-06 22:21:00,
2013-09-07 08:22:00,68.9,49.5,29.94,NNW,338,7.6,7.6,50,0.00,,---,0.00,VWS V14.01,2013-09-06 22:22:00,
2013-09-07 08:23:00,68.9,49.0,29.94,WNW,292,3.4,7.6,49,0.00,,---,0.00,VWS V14.01,2013-09-06 22:23:00,
2013-09-07 08:24:00,68.9,49.0,29.94,NNE,22,4.3,4.3,49,0.00,,---,0.00,VWS V14.01,2013-09-06 22:24:00,
2013-09-07 08:25:00,69.1,49.1,29.94,NW,315,7.2,7.2,49,0.00,,---,0.00,VWS V14.01,2013-09-06 22:25:00,
2013-09-07 08:26:00,69.1,49.1,29.94,NW,315,6.0,6.0,49,0.00,,---,0.00,VWS V14.01,2013-09-06 22:26:00,
2013-09-07 08:27:00,69.1,49.1,29.94,NW,315,6.0,6.0,49,0.00,,---,0.00,VWS V14.01,2013-09-06 22:27:00,
2013-09-07 08:28:00,69.1,49.1,29.94,West,270,5.4,6.0,49,0.00,,---,0.00,VWS V14.01,2013-09-06 22:28:00,
2013-09-07 08:29:00,69.3,49.3,29.94,NW,315,4.7,5.4,49,0.00,,---,0.00,VWS V14.01,2013-09-06 22:29:00,
2013-09-07 08:30:00,69.3,49.3,29.94,West,270,7.2,7.2,49,0.00,,---,0.00,VWS V14.01,2013-09-06 22:30:00,
2013-09-07 08:31:00,69.4,49.5,29.94,NW,315,6.3,6.3,49,0.00,,---,0.00,VWS V14.01,2013-09-06 22:31:00,
2013-09-07 08:32:00,69.4,49.5,29.94,NW,315,6.3,6.3,49,0.00,,---,0.00,VWS V14.01,2013-09-06 22:32:00,
2013-09-07 08:33:00,69.4,49.5,29.94,WNW,292,5.8,6.5,49,0.00,,---,0.00,VWS V14.01,2013-09-06 22:33:00,
2013-09-07 08:34:00,69.4,49.5,29.94,WNW,292,3.8,5.8,49,0.00,,---,0.00,VWS V14.01,2013-09-06 22:34:00,
2013-09-07 08:35:00,69.4,49.5,29.94,NW,315,3.1,3.8,49,0.00,,---,0.00,VWS V14.01,2013-09-06 22:35:00,
2013-09-07 08:36:00,69.6,49.6,29.94,NW,315,3.4,3.4,49,0.00,,---,0.00,VWS V14.01,2013-09-06 22:36:00,
2013-09-07 08:37:00,69.6,49.6,29.94,NW,315,3.4,3.4,49,0.00,,---,0.00,VWS V14.01,2013-09-06 22:37:00,
2013-09-07 08:38:00,69.6,49.6,29.94,NW,315,6.5,6.5,49,0.00,,---,0.00,VWS V14.01,2013-09-06 22:38:00,
2013-09-07 08:39:00,69.8,49.2,29.94,WNW,292,3.6,6.5,48,0.00,,---,0.00,VWS V14.01,2013-09-06 22:39:00,
2013-09-07 08:40:00,69.8,49.2,29.94,NW,315,2.7,3.6,48,0.00,,---,0.00,VWS V14.01,2013-09-06 22:40:00,
2013-09-07 08:41:00,69.8,49.2,29.94,NW,315,3.6,5.4,48,0.00,,---,0.00,VWS V14.01,2013-09-06 22:41:00,
2013-09-07 08:42:00,69.8,49.2,29.94,NW,315,3.6,5.4,48,0.00,,---,0.00,VWS V14.01,2013-09-06 22:42:00,
2013-09-07 08:43:00,69.8,49.2,29.94,WNW,292,5.8,5.8,48,0.00,,---,0.00,VWS V14.01,2013-09-06 22:43:00,
2013-09-07 08:44:00,69.8,49.2,29.94,NW,315,5.8,5.8,48,0.00,,---,0.00,VWS V14.01,2013-09-06 22:44:00,
2013-09-07 08:45:00,69.8,49.2,29.94,NW,315,5.8,5.8,48,0.00,,---,0.00,VWS V14.01,2013-09-06 22:45:00,
2013-09-07 08:46:00,70.0,49.4,29.94,WNW,292,4.3,4.3,48,0.00,,---,0.00,VWS V14.01,2013-09-06 22:46:00,
2013-09-07 08:47:00,70.0,49.4,29.94,NW,315,3.6,4.3,48,0.00,,---,0.00,VWS V14.01,2013-09-06 22:47:00,
2013-09-07 08:48:00,70.0,49.4,29.94,West,270,7.6,7.6,48,0.00,,---,0.00,VWS V14.01,2013-09-06 22:48:00,
2013-09-07 08:49:00,70.0,49.4,29.94,North,0,5.8,7.6,48,0.00,,---,0.00,VWS V14.01,2013-09-06 22:49:00,
2013-09-07 08:50:00,70.2,49.0,29.94,NNW,338,3.6,5.8,47,0.00,,---,0.00,VWS V14.01,2013-09-06 22:50:00,
2013-09-07 08:51:00,70.3,49.2,29.94,WNW,292,4.3,4.3,47,0.00,,---,0.00,VWS V14.01,2013-09-06 22:51:00,
2013-09-07 08:52:00,70.3,49.2,29.94,NNE,22,6.3,6.3,47,0.00,,---,0.00,VWS V14.01,2013-09-06 22:52:00,
2013-09-07 08:53:00,70.5,49.3,29.94,NNE,22,6.3,6.3,47,0.00,,---,0.00,VWS V14.01,2013-09-06 22:53:00,
2013-09-07 08:54:00,70.5,49.3,29.94,NNE,22,6.3,6.3,47,0.00,,---,0.00,VWS V14.01,2013-09-06 22:54:00,
2013-09-07 08:55:00,70.7,49.5,29.94,WNW,292,6.5,6.5,47,0.00,,---,0.00,VWS V14.01,2013-09-06 22:55:00,
2013-09-07 08:56:00,71.1,49.8,29.94,NW,315,3.4,8.5,47,0.00,,---,0.00,VWS V14.01,2013-09-06 22:56:00,
2013-09-07 08:57:00,71.1,49.8,29.94,NW,315,3.4,8.5,47,0.00,,---,0.00,VWS V14.01,2013-09-06 22:57:00,
2013-09-07 08:58:00,71.1,49.8,29.94,NW,315,8.5,8.5,47,0.00,,---,0.00,VWS V14.01,2013-09-06 22:58:00,
2013-09-07 08:59:00,71.4,50.2,29.94,NNW,338,8.1,8.5,47,0.00,,---,0.00,VWS V14.01,2013-09-06 22:59:00,
2013-09-07 09:00:00,71.6,49.8,29.94,NNW,338,8.1,8.1,46,0.00,,---,0.00,VWS V14.01,2013-09-06 23:00:00,
2013-09-07 09:01:00,71.8,49.9,29.94,West,270,6.7,6.7,46,0.00,,---,0.00,VWS V14.01,2013-09-06 23:01:00,
2013-09-07 09:02:00,71.8,49.9,29.94,West,270,6.7,6.7,46,0.00,,---,0.00,VWS V14.01,2013-09-06 23:02:00,
2013-09-07 09:03:00,71.8,49.9,29.94,West,270,6.7,6.7,46,0.00,,---,0.00,VWS V14.01,2013-09-06 23:03:00,
2013-09-07 09:04:00,72.0,50.1,29.94,NW,315,4.7,6.7,46,0.00,,---,0.00,VWS V14.01,2013-09-06 23:04:00,
2013-09-07 09:06:00,72.1,50.2,29.94,NW,315,4.9,4.9,46,0.00,,---,0.00,VWS V14.01,2013-09-06 23:06:00,
2013-09-07 09:07:00,72.1,50.2,29.94,NW,315,1.6,4.9,46,0.00,,---,0.00,VWS V14.01,2013-09-06 23:07:00,
2013-09-07 09:08:00,72.1,50.2,29.94,NW,315,2.7,2.7,46,0.00,,---,0.00,VWS V14.01,2013-09-06 23:08:00,
2013-09-07 09:09:00,72.7,50.1,29.94,West,270,3.4,3.4,45,0.00,,---,0.00,VWS V14.01,2013-09-06 23:09:00,
2013-09-07 09:10:00,72.7,50.1,29.94,West,270,3.4,3.4,45,0.00,,---,0.00,VWS V14.01,2013-09-06 23:10:00,
2013-09-07 09:11:00,73.2,50.6,29.94,West,270,3.4,3.4,45,0.00,,---,0.00,VWS V14.01,2013-09-06 23:11:00,
2013-09-07 09:12:00,73.2,50.6,29.94,West,270,3.4,3.4,45,0.00,,---,0.00,VWS V14.01,2013-09-06 23:12:00,
2013-09-07 09:13:00,73.6,51.0,29.94,West,270,4.7,4.7,45,0.00,,---,0.00,VWS V14.01,2013-09-06 23:13:00,
2013-09-07 09:14:00,74.1,50.8,29.94,NW,315,4.9,4.9,44,0.00,,---,0.00,VWS V14.01,2013-09-06 23:14:00,
2013-09-07 09:15:00,74.1,50.8,29.94,NW,315,4.9,4.9,44,0.00,,---,0.00,VWS V14.01,2013-09-06 23:15:00,
2013-09-07 09:16:00,74.3,51.0,29.91,NW,315,2.9,4.9,44,0.00,,---,0.00,VWS V14.01,2013-09-06 23:16:00,
2013-09-07 09:17:00,74.3,51.0,29.91,NW,315,2.9,4.9,44,0.00,,---,0.00,VWS V14.01,2013-09-06 23:17:00,
2013-09-07 09:18:00,74.7,51.3,29.91,NW,315,3.8,3.8,44,0.00,,---,0.00,VWS V14.01,2013-09-06 23:18:00,
2013-09-07 09:19:00,74.7,51.3,29.91,NW,315,3.8,3.8,44,0.00,,---,0.00,VWS V14.01,2013-09-06 23:19:00,
2013-09-07 09:20:00,74.8,51.5,29.91,NW,315,3.8,3.8,44,0.00,,---,0.00,VWS V14.01,2013-09-06 23:20:00,
2013-09-07 09:21:00,74.8,51.5,29.91,WNW,292,7.6,7.6,44,0.00,,---,0.00,VWS V14.01,2013-09-06 23:21:00,
2013-09-07 09:22:00,74.8,51.5,29.91,WNW,292,7.6,7.6,44,0.00,,---,0.00,VWS V14.01,2013-09-06 23:22:00,
2013-09-07 09:23:00,74.8,51.5,29.91,WNW,292,7.6,7.6,44,0.00,,---,0.00,VWS V14.01,2013-09-06 23:23:00,
2013-09-07 09:24:00,74.8,51.5,29.91,WNW,292,7.6,7.6,44,0.00,,---,0.00,VWS V14.01,2013-09-06 23:24:00,
2013-09-07 09:25:00,75.0,51.0,29.91,WNW,292,7.6,7.6,43,0.00,,---,0.00,VWS V14.01,2013-09-06 23:25:00,
2013-09-07 09:26:00,75.4,51.3,29.91,WSW,248,5.4,5.4,43,0.00,,---,0.00,VWS V14.01,2013-09-06 23:26:00,
2013-09-07 09:27:00,75.4,51.3,29.91,WSW,248,5.4,5.4,43,0.00,,---,0.00,VWS V14.01,2013-09-06 23:27:00,
2013-09-07 09:28:00,75.4,51.3,29.91,WSW,248,5.4,5.4,43,0.00,,---,0.00,VWS V14.01,2013-09-06 23:28:00,
2013-09-07 09:29:00,75.6,51.5,29.91,WSW,248,5.4,5.4,43,0.00,,---,0.00,VWS V14.01,2013-09-06 23:29:00,
2013-09-07 09:30:00,75.6,51.5,29.91,NNW,338,10.1,10.1,43,0.00,,---,0.00,VWS V14.01,2013-09-06 23:30:00,
2013-09-07 09:31:00,75.6,51.5,29.91,NNW,338,10.1,10.1,43,0.00,,---,0.00,VWS V14.01,2013-09-06 23:31:00,
2013-09-07 09:32:00,75.6,51.5,29.91,NNW,338,10.1,10.1,43,0.00,,---,0.00,VWS V14.01,2013-09-06 23:32:00,
2013-09-07 09:33:00,75.6,51.5,29.91,NNW,338,10.1,10.1,43,0.00,,---,0.00,VWS V14.01,2013-09-06 23:33:00,
2013-09-07 09:34:00,75.4,51.3,29.91,NNW,338,10.1,10.1,43,0.00,,---,0.00,VWS V14.01,2013-09-06 23:34:00,
2013-09-07 09:35:00,75.4,51.3,29.91,NNW,338,10.1,10.1,43,0.00,,---,0.00,VWS V14.01,2013-09-06 23:35:00,
2013-09-07 09:36:00,75.2,51.2,29.91,West,270,4.0,4.0,43,0.00,,---,0.00,VWS V14.01,2013-09-06 23:36:00,
2013-09-07 09:37:00,75.0,51.0,29.91,West,270,4.0,4.0,43,0.00,,---,0.00,VWS V14.01,2013-09-06 23:37:00,
2013-09-07 09:38:00,75.0,51.0,29.91,West,270,4.0,4.0,43,0.00,,---,0.00,VWS V14.01,2013-09-06 23:38:00,
2013-09-07 09:39:00,75.2,51.2,29.91,West,270,4.0,4.0,43,0.00,,---,0.00,VWS V14.01,2013-09-06 23:39:00,
2013-09-07 09:40:00,75.2,51.2,29.91,West,270,4.0,4.0,43,0.00,,---,0.00,VWS V14.01,2013-09-06 23:40:00,
2013-09-07 09:41:00,75.2,51.2,29.91,WNW,292,8.7,8.7,43,0.00,,---,0.00,VWS V14.01,2013-09-06 23:41:00,
2013-09-07 09:42:00,75.2,51.2,29.91,WNW,292,8.7,8.7,43,0.00,,---,0.00,VWS V14.01,2013-09-06 23:42:00,
2013-09-07 09:43:00,75.4,50.7,29.91,WNW,292,4.9,8.7,42,0.00,,---,0.00,VWS V14.01,2013-09-06 23:43:00,
2013-09-07 09:44:00,75.4,50.7,29.91,WNW,292,4.9,4.9,42,0.00,,---,0.00,VWS V14.01,2013-09-06 23:44:00,
2013-09-07 09:45:00,75.7,51.0,29.91,WNW,292,4.9,4.9,42,0.00,,---,0.00,VWS V14.01,2013-09-06 23:45:00,
2013-09-07 09:46:00,75.9,51.2,29.91,WNW,292,4.9,4.9,42,0.00,,---,0.00,VWS V14.01,2013-09-06 23:46:00,
2013-09-07 09:47:00,75.9,51.2,29.91,WNW,292,4.9,4.9,42,0.00,,---,0.00,VWS V14.01,2013-09-06 23:47:00,
2013-09-07 09:48:00,75.9,51.2,29.91,WNW,292,4.9,4.9,42,0.00,,---,0.00,VWS V14.01,2013-09-06 23:48:00,
2013-09-07 09:49:00,75.9,51.2,29.91,WNW,292,9.6,9.6,42,0.00,,---,0.00,VWS V14.01,2013-09-06 23:49:00,
2013-09-07 09:50:00,75.9,51.2,29.91,WNW,292,9.6,9.6,42,0.00,,---,0.00,VWS V14.01,2013-09-06 23:50:00,
2013-09-07 09:51:00,76.1,51.4,29.91,WNW,292,9.6,9.6,42,0.00,,---,0.00,VWS V14.01,2013-09-06 23:51:00,
2013-09-07 09:52:00,76.1,51.4,29.91,WNW,292,9.6,9.6,42,0.00,,---,0.00,VWS V14.01,2013-09-06 23:52:00,
2013-09-07 09:53:00,76.1,51.4,29.91,WNW,292,9.6,9.6,42,0.00,,---,0.00,VWS V14.01,2013-09-06 23:53:00,
2013-09-07 09:54:00,76.3,51.5,29.91,West,270,2.9,9.6,42,0.00,,---,0.00,VWS V14.01,2013-09-06 23:54:00,
2013-09-07 09:55:00,76.3,51.5,29.91,West,270,2.9,2.9,42,0.00,,---,0.00,VWS V14.01,2013-09-06 23:55:00,
2013-09-07 09:56:00,76.1,51.4,29.91,West,270,2.9,2.9,42,0.00,,---,0.00,VWS V14.01,2013-09-06 23:56:00,
2013-09-07 09:57:00,76.1,51.4,29.91,West,270,2.9,2.9,42,0.00,,---,0.00,VWS V14.01,2013-09-06 23:57:00,
2013-09-07 09:58:00,76.1,51.4,29.91,West,270,2.9,2.9,42,0.00,,---,0.00,VWS V14.01,2013-09-06 23:58:00,
2013-09-07 09:59:00,76.1,51.4,29.91,West,270,2.9,2.9,42,0.00,,---,0.00,VWS V14.01,2013-09-06 23:59:00,
2013-09-07 10:00:00,76.1,51.4,29.91,West,270,2.9,2.9,42,0.00,,---,0.00,VWS V14.01,2013-09-07 00:00:00,
2013-09-07 10:01:00,76.1,51.4,29.91,West,270,2.9,2.9,42,0.00,,---,0.00,VWS V14.01,2013-09-07 00:01:00,
2013-09-07 10:02:00,76.1,51.4,29.91,West,270,2.9,2.9,42,0.00,,---,0.00,VWS V14.01,2013-09-07 00:02:00,
2013-09-07 10:03:00,76.1,51.4,29.91,West,270,2.9,2.9,42,0.00,,---,0.00,VWS V14.01,2013-09-07 00:03:00,
2013-09-07 10:05:00,76.1,51.4,29.91,West,270,2.9,2.9,42,0.00,,---,0.00,VWS V14.01,2013-09-07 00:05:00,
2013-09-07 10:06:00,76.5,51.7,29.91,North,0,6.3,7.2,42,0.00,,---,0.00,VWS V14.01,2013-09-07 00:06:00,
2013-09-07 10:07:00,76.5,51.7,29.91,North,0,6.3,7.2,42,0.00,,---,0.00,VWS V14.01,2013-09-07 00:07:00,
2013-09-07 10:08:00,76.5,51.7,29.91,North,0,6.3,6.3,42,0.00,,---,0.00,VWS V14.01,2013-09-07 00:08:00,
2013-09-07 10:09:00,76.5,51.7,29.91,North,0,6.3,6.3,42,0.00,,---,0.00,VWS V14.01,2013-09-07 00:09:00,
2013-09-07 10:10:00,76.6,51.8,29.91,North,0,6.3,6.3,42,0.00,,---,0.00,VWS V14.01,2013-09-07 00:10:00,
2013-09-07 10:11:00,76.8,52.0,29.91,North,0,6.3,6.3,42,0.00,,---,0.00,VWS V14.01,2013-09-07 00:11:00,
2013-09-07 10:13:00,76.8,52.0,29.91,North,0,6.3,6.3,42,0.00,,---,0.00,VWS V14.01,2013-09-07 00:13:00,
2013-09-07 10:14:00,77.2,51.7,29.91,WNW,292,6.0,6.3,41,0.00,,---,0.00,VWS V14.01,2013-09-07 00:14:00,
2013-09-07 10:15:00,77.4,51.8,29.91,WNW,292,6.0,6.0,41,0.00,,---,0.00,VWS V14.01,2013-09-07 00:15:00,
2013-09-07 10:16:00,77.5,52.0,29.91,WNW,292,6.0,6.0,41,0.00,,---,0.00,VWS V14.01,2013-09-07 00:16:00,
2013-09-07 10:17:00,77.5,52.0,29.91,WNW,292,6.0,6.0,41,0.00,,---,0.00,VWS V14.01,2013-09-07 00:17:00,
2013-09-07 10:18:00,77.5,52.0,29.91,WNW,292,6.0,6.0,41,0.00,,---,0.00,VWS V14.01,2013-09-07 00:18:00,
2013-09-07 10:19:00,77.7,52.2,29.91,WNW,292,6.0,6.0,41,0.00,,---,0.00,VWS V14.01,2013-09-07 00:19:00,
2013-09-07 10:20:00,77.7,52.2,29.91,WNW,292,6.0,6.0,41,0.00,,---,0.00,VWS V14.01,2013-09-07 00:20:00,
2013-09-07 10:21:00,77.9,52.3,29.91,WNW,292,6.0,6.0,41,0.00,,---,0.00,VWS V14.01,2013-09-07 00:21:00,
2013-09-07 10:22:00,77.9,52.3,29.91,WNW,292,6.0,6.0,41,0.00,,---,0.00,VWS V14.01,2013-09-07 00:22:00,
2013-09-07 10:23:00,78.1,52.5,29.91,WNW,292,6.0,6.0,41,0.00,,---,0.00,VWS V14.01,2013-09-07 00:23:00,
2013-09-07 10:25:00,78.1,52.5,29.91,WNW,292,6.0,6.0,41,0.00,,---,0.00,VWS V14.01,2013-09-07 00:25:00,
2013-09-07 10:26:00,78.4,52.8,29.91,WNW,292,6.0,6.0,41,0.00,,---,0.00,VWS V14.01,2013-09-07 00:26:00,
2013-09-07 10:27:00,78.4,52.8,29.91,WNW,292,6.0,6.0,41,0.00,,---,0.00,VWS V14.01,2013-09-07 00:27:00,
2013-09-07 10:28:00,78.4,52.8,29.91,WNW,292,6.0,6.0,41,0.00,,---,0.00,VWS V14.01,2013-09-07 00:28:00,
2013-09-07 10:29:00,78.4,52.8,29.91,WNW,292,6.0,6.0,41,0.00,,---,0.00,VWS V14.01,2013-09-07 00:29:00,
2013-09-07 10:30:00,78.6,53.0,29.91,WNW,292,6.0,6.0,41,0.00,,---,0.00,VWS V14.01,2013-09-07 00:30:00,
2013-09-07 10:31:00,78.8,52.5,29.88,WNW,292,6.0,6.0,40,0.00,,---,0.00,VWS V14.01,2013-09-07 00:31:00,
2013-09-07 10:32:00,78.8,52.5,29.88,WNW,292,6.0,6.0,40,0.00,,---,0.00,VWS V14.01,2013-09-07 00:32:00,
2013-09-07 10:33:00,78.8,52.5,29.88,WNW,292,6.0,6.0,40,0.00,,---,0.00,VWS V14.01,2013-09-07 00:33:00,
2013-09-07 10:34:00,78.8,52.5,29.88,WNW,292,6.0,6.0,40,0.00,,---,0.00,VWS V14.01,2013-09-07 00:34:00,
2013-09-07 10:35:00,79.0,52.6,29.88,WNW,292,6.0,6.0,40,0.00,,---,0.00,VWS V14.01,2013-09-07 00:35:00,
2013-09-07 10:36:00,79.0,52.6,29.88,WNW,292,6.0,6.0,40,0.00,,---,0.00,VWS V14.01,2013-09-07 00:36:00,
2013-09-07 10:37:00,79.2,52.8,29.88,WNW,292,6.0,6.0,40,0.00,,---,0.00,VWS V14.01,2013-09-07 00:37:00,
2013-09-07 10:38:00,79.2,52.8,29.88,WNW,292,6.0,6.0,40,0.00,,---,0.00,VWS V14.01,2013-09-07 00:38:00,
2013-09-07 10:39:00,79.2,52.8,29.88,WNW,292,6.0,6.0,40,0.00,,---,0.00,VWS V14.01,2013-09-07 00:39:00,
2013-09-07 10:40:00,79.2,52.8,29.88,WNW,292,6.0,6.0,40,0.00,,---,0.00,VWS V14.01,2013-09-07 00:40:00,
2013-09-07 10:41:00,79.5,53.1,29.88,WNW,292,6.0,6.0,40,0.00,,---,0.00,VWS V14.01,2013-09-07 00:41:00,
2013-09-07 10:42:00,79.5,53.1,29.88,WNW,292,6.0,6.0,40,0.00,,---,0.00,VWS V14.01,2013-09-07 00:42:00,
2013-09-07 10:43:00,80.1,53.6,29.88,WNW,292,6.0,6.0,40,0.00,,---,0.00,VWS V14.01,2013-09-07 00:43:00,
2013-09-07 10:44:00,80.1,53.6,29.88,WNW,292,6.0,6.0,40,0.00,,---,0.00,VWS V14.01,2013-09-07 00:44:00,
2013-09-07 10:45:00,80.2,53.8,29.88,WNW,292,6.0,6.0,40,0.00,,---,0.00,VWS V14.01,2013-09-07 00:45:00,
2013-09-07 10:46:00,80.2,53.8,29.88,WNW,292,6.0,6.0,40,0.00,,---,0.00,VWS V14.01,2013-09-07 00:46:00,
2013-09-07 10:47:00,80.2,53.8,29.88,WNW,292,6.0,6.0,40,0.00,,---,0.00,VWS V14.01,2013-09-07 00:47:00,
2013-09-07 10:48:00,80.2,53.8,29.88,WNW,292,6.0,6.0,40,0.00,,---,0.00,VWS V14.01,2013-09-07 00:48:00,
2013-09-07 10:49:00,80.2,53.8,29.88,WNW,292,6.0,6.0,40,0.00,,---,0.00,VWS V14.01,2013-09-07 00:49:00,
2013-09-07 10:50:00,80.4,53.2,29.88,WNW,292,6.0,6.0,39,0.00,,---,0.00,VWS V14.01,2013-09-07 00:50:00,
2013-09-07 10:51:00,80.4,53.2,29.88,WNW,292,6.0,6.0,39,0.00,,---,0.00,VWS V14.01,2013-09-07 00:51:00,
2013-09-07 10:52:00,80.6,53.4,29.88,WNW,292,6.0,6.0,39,0.00,,---,0.00,VWS V14.01,2013-09-07 00:52:00,
2013-09-07 10:53:00,80.6,53.4,29.88,WNW,292,6.0,6.0,39,0.00,,---,0.00,VWS V14.01,2013-09-07 00:53:00,
2013-09-07 10:54:00,80.6,53.4,29.88,West,270,5.8,6.0,39,0.00,,---,0.00,VWS V14.01,2013-09-07 00:54:00,
2013-09-07 10:55:00,80.6,53.4,29.88,West,270,5.8,5.8,39,0.00,,---,0.00,VWS V14.01,2013-09-07 00:55:00,
2013-09-07 10:56:00,80.8,53.5,29.88,West,270,5.8,5.8,39,0.00,,---,0.00,VWS V14.01,2013-09-07 00:56:00,
2013-09-07 10:57:00,80.8,53.5,29.88,West,270,5.8,5.8,39,0.00,,---,0.00,VWS V14.01,2013-09-07 00:57:00,
2013-09-07 10:58:00,81.0,53.0,29.88,West,270,5.8,5.8,38,0.00,,---,0.00,VWS V14.01,2013-09-07 00:58:00,
2013-09-07 10:59:00,81.0,53.0,29.88,West,270,5.8,5.8,38,0.00,,---,0.00,VWS V14.01,2013-09-07 00:59:00,
2013-09-07 11:00:00,81.1,53.2,29.88,West,270,5.8,5.8,38,0.00,,---,0.00,VWS V14.01,2013-09-07 01:00:00,
2013-09-07 11:01:00,81.1,53.2,29.88,West,270,5.8,5.8,38,0.00,,---,0.00,VWS V14.01,2013-09-07 01:01:00,
2013-09-07 11:02:00,81.1,53.2,29.88,West,270,5.8,5.8,38,0.00,,---,0.00,VWS V14.01,2013-09-07 01:02:00,
2013-09-07 11:03:00,81.1,53.2,29.88,West,270,5.8,5.8,38,0.00,,---,0.00,VWS V14.01,2013-09-07 01:03:00,
2013-09-07 11:04:00,81.1,53.2,29.88,West,270,5.8,5.8,38,0.00,,---,0.00,VWS V14.01,2013-09-07 01:04:00,
2013-09-07 11:05:00,81.1,52.4,29.88,NW,315,11.9,11.9,37,0.00,,---,0.00,VWS V14.01,2013-09-07 01:05:00,
2013-09-07 11:06:00,81.3,52.6,29.88,NW,315,11.9,11.9,37,0.00,,---,0.00,VWS V14.01,2013-09-07 01:06:00,
2013-09-07 11:07:00,81.3,52.6,29.88,NW,315,11.9,11.9,37,0.00,,---,0.00,VWS V14.01,2013-09-07 01:07:00,
2013-09-07 11:08:00,81.3,52.6,29.88,WNW,292,6.3,11.9,37,0.00,,---,0.00,VWS V14.01,2013-09-07 01:08:00,
2013-09-07 11:09:00,81.3,52.6,29.88,NW,315,9.8,9.8,37,0.00,,---,0.00,VWS V14.01,2013-09-07 01:09:00,
2013-09-07 11:10:00,81.5,52.7,29.88,NW,315,9.8,9.8,37,0.00,,---,0.00,VWS V14.01,2013-09-07 01:10:00,
2013-09-07 11:11:00,81.5,52.7,29.88,NW,315,12.5,12.5,37,0.00,,---,0.00,VWS V14.01,2013-09-07 01:11:00,
2013-09-07 11:12:00,81.5,52.7,29.88,NW,315,12.5,12.5,37,0.00,,---,0.00,VWS V14.01,2013-09-07 01:12:00,
2013-09-07 11:13:00,81.5,52.7,29.88,NW,315,13.2,13.2,37,0.00,,---,0.00,VWS V14.01,2013-09-07 01:13:00,
2013-09-07 11:14:00,81.5,52.7,29.88,West,270,12.3,13.2,37,0.00,,---,0.00,VWS V14.01,2013-09-07 01:14:00,
2013-09-07 11:15:00,81.5,52.7,29.88,West,270,12.3,12.3,37,0.00,,---,0.00,VWS V14.01,2013-09-07 01:15:00,
2013-09-07 11:16:00,81.7,52.2,29.88,West,270,8.5,8.5,36,0.00,,---,0.00,VWS V14.01,2013-09-07 01:16:00,
2013-09-07 11:17:00,81.7,52.2,29.88,NW,315,5.6,8.5,36,0.00,,---,0.00,VWS V14.01,2013-09-07 01:17:00,
2013-09-07 11:18:00,81.7,52.2,29.88,NW,315,5.6,5.6,36,0.00,,---,0.00,VWS V14.01,2013-09-07 01:18:00,
2013-09-07 11:19:00,81.9,52.3,29.88,West,270,7.6,7.6,36,0.00,,---,0.00,VWS V14.01,2013-09-07 01:19:00,
2013-09-07 11:20:00,81.9,52.3,29.88,West,270,7.6,7.6,36,0.00,,---,0.00,VWS V14.01,2013-09-07 01:20:00,
2013-09-07 11:21:00,82.0,52.5,29.88,West,270,7.6,7.6,36,0.00,,---,0.00,VWS V14.01,2013-09-07 01:21:00,
2013-09-07 11:22:00,82.0,52.5,29.88,West,270,7.6,7.6,36,0.00,,---,0.00,VWS V14.01,2013-09-07 01:22:00,
2013-09-07 11:23:00,82.2,52.6,29.88,West,270,8.5,8.5,36,0.00,,---,0.00,VWS V14.01,2013-09-07 01:23:00,
2013-09-07 11:24:00,82.4,52.8,29.88,West,270,8.5,8.5,36,0.00,,---,0.00,VWS V14.01,2013-09-07 01:24:00,
2013-09-07 11:25:00,82.4,52.8,29.88,West,270,8.5,8.5,36,0.00,,---,0.00,VWS V14.01,2013-09-07 01:25:00,
2013-09-07 11:26:00,82.4,52.8,29.88,WNW,292,5.8,5.8,36,0.00,,---,0.00,VWS V14.01,2013-09-07 01:26:00,
2013-09-07 11:27:00,82.4,52.8,29.88,WNW,292,5.8,5.8,36,0.00,,---,0.00,VWS V14.01,2013-09-07 01:27:00,
2013-09-07 11:28:00,82.6,53.0,29.88,NW,315,8.7,8.7,36,0.00,,---,0.00,VWS V14.01,2013-09-07 01:28:00,
2013-09-07 11:29:00,82.6,53.0,29.88,NW,315,5.4,8.7,36,0.00,,---,0.00,VWS V14.01,2013-09-07 01:29:00,
2013-09-07 11:30:00,82.8,53.1,29.88,NW,315,5.4,5.4,36,0.00,,---,0.00,VWS V14.01,2013-09-07 01:30:00,
2013-09-07 11:31:00,82.8,52.3,29.85,NW,315,5.4,5.4,35,0.00,,---,0.00,VWS V14.01,2013-09-07 01:31:00,
2013-09-07 11:32:00,82.8,52.3,29.85,NW,315,5.4,5.4,35,0.00,,---,0.00,VWS V14.01,2013-09-07 01:32:00,
2013-09-07 11:33:00,82.9,52.5,29.85,West,270,8.7,8.7,35,0.00,,---,0.00,VWS V14.01,2013-09-07 01:33:00,
2013-09-07 11:34:00,82.9,52.5,29.85,West,270,8.7,8.7,35,0.00,,---,0.00,VWS V14.01,2013-09-07 01:34:00,
2013-09-07 11:35:00,83.1,52.7,29.85,NW,315,4.9,8.7,35,0.00,,---,0.00,VWS V14.01,2013-09-07 01:35:00,
2013-09-07 11:36:00,83.1,52.7,29.85,NW,315,5.6,5.6,35,0.00,,---,0.00,VWS V14.01,2013-09-07 01:36:00,
2013-09-07 11:37:00,83.1,52.7,29.85,WNW,292,6.0,6.0,35,0.00,,---,0.00,VWS V14.01,2013-09-07 01:37:00,
2013-09-07 11:38:00,83.1,52.7,29.85,NW,315,8.1,8.1,35,0.00,,---,0.00,VWS V14.01,2013-09-07 01:38:00,
2013-09-07 11:39:00,83.1,52.7,29.85,NW,315,8.1,8.1,35,0.00,,---,0.00,VWS V14.01,2013-09-07 01:39:00,
2013-09-07 11:40:00,82.9,52.5,29.85,NW,315,8.1,8.1,35,0.00,,---,0.00,VWS V14.01,2013-09-07 01:40:00,
2013-09-07 11:41:00,82.9,52.5,29.85,WNW,292,7.4,10.3,35,0.00,,---,0.00,VWS V14.01,2013-09-07 01:41:00,
2013-09-07 11:42:00,82.9,52.5,29.85,WNW,292,7.4,10.3,35,0.00,,---,0.00,VWS V14.01,2013-09-07 01:42:00,
2013-09-07 11:43:00,82.9,52.5,29.85,WNW,292,7.4,7.4,35,0.00,,---,0.00,VWS V14.01,2013-09-07 01:43:00,
2013-09-07 11:44:00,82.8,52.3,29.85,WNW,292,7.4,7.4,35,0.00,,---,0.00,VWS V14.01,2013-09-07 01:44:00,
2013-09-07 11:45:00,82.8,52.3,29.85,WNW,292,7.4,7.4,35,0.00,,---,0.00,VWS V14.01,2013-09-07 01:45:00,
2013-09-07 11:46:00,82.8,52.3,29.88,WNW,292,7.4,7.4,35,0.00,,---,0.00,VWS V14.01,2013-09-07 01:46:00,
2013-09-07 11:47:00,82.6,52.2,29.88,NW,315,3.8,7.4,35,0.00,,---,0.00,VWS V14.01,2013-09-07 01:47:00,
2013-09-07 11:48:00,82.6,52.2,29.88,WSW,248,7.6,7.6,35,0.00,,---,0.00,VWS V14.01,2013-09-07 01:48:00,
2013-09-07 11:49:00,82.6,51.4,29.88,WSW,248,7.6,7.6,34,0.00,,---,0.00,VWS V14.01,2013-09-07 01:49:00,
2013-09-07 11:50:00,82.6,51.4,29.88,WSW,248,7.6,7.6,34,0.00,,---,0.00,VWS V14.01,2013-09-07 01:50:00,
2013-09-07 11:51:00,82.6,51.4,29.88,WSW,248,7.6,7.6,34,0.00,,---,0.00,VWS V14.01,2013-09-07 01:51:00,
2013-09-07 11:52:00,82.6,51.4,29.88,WSW,248,7.6,7.6,34,0.00,,---,0.00,VWS V14.01,2013-09-07 01:52:00,
2013-09-07 11:53:00,82.6,51.4,29.88,WSW,248,7.6,7.6,34,0.00,,---,0.00,VWS V14.01,2013-09-07 01:53:00,
2013-09-07 11:54:00,82.4,51.2,29.88,WSW,248,7.6,7.6,34,0.00,,---,0.00,VWS V14.01,2013-09-07 01:54:00,
2013-09-07 11:55:00,82.4,51.2,29.88,WSW,248,7.6,7.6,34,0.00,,---,0.00,VWS V14.01,2013-09-07 01:55:00,
2013-09-07 11:56:00,82.6,51.4,29.88,WSW,248,7.6,7.6,34,0.00,,---,0.00,VWS V14.01,2013-09-07 01:56:00,
2013-09-07 11:57:00,82.6,51.4,29.88,WSW,248,7.6,7.6,34,0.00,,---,0.00,VWS V14.01,2013-09-07 01:57:00,
2013-09-07 11:58:00,82.4,51.2,29.88,WSW,248,7.6,7.6,34,0.00,,---,0.00,VWS V14.01,2013-09-07 01:58:00,
2013-09-07 11:59:00,82.4,51.2,29.88,WSW,248,7.6,7.6,34,0.00,,---,0.00,VWS V14.01,2013-09-07 01:59:00,
2013-09-07 12:00:00,82.4,51.2,29.88,WSW,248,7.6,7.6,34,0.00,,---,0.00,VWS V14.01,2013-09-07 02:00:00,
2013-09-07 12:01:00,82.6,51.4,29.85,WSW,248,7.6,7.6,34,0.00,,---,0.00,VWS V14.01,2013-09-07 02:01:00,
2013-09-07 12:02:00,82.6,51.4,29.85,WSW,248,7.6,7.6,34,0.00,,---,0.00,VWS V14.01,2013-09-07 02:02:00,
2013-09-07 12:03:00,82.6,51.4,29.85,WSW,248,7.6,7.6,34,0.00,,---,0.00,VWS V14.01,2013-09-07 02:03:00,
2013-09-07 12:04:00,82.6,51.4,29.85,WSW,248,7.6,7.6,34,0.00,,---,0.00,VWS V14.01,2013-09-07 02:04:00,
2013-09-07 12:05:00,82.8,51.6,29.85,WSW,248,7.6,7.6,34,0.00,,---,0.00,VWS V14.01,2013-09-07 02:05:00,
2013-09-07 12:06:00,82.8,51.6,29.85,WSW,248,7.6,7.6,34,0.00,,---,0.00,VWS V14.01,2013-09-07 02:06:00,
2013-09-07 12:07:00,82.8,51.6,29.85,WSW,248,7.6,7.6,34,0.00,,---,0.00,VWS V14.01,2013-09-07 02:07:00,
2013-09-07 12:08:00,83.1,51.9,29.85,WSW,248,7.6,7.6,34,0.00,,---,0.00,VWS V14.01,2013-09-07 02:08:00,
2013-09-07 12:09:00,83.1,51.9,29.85,WSW,248,7.6,7.6,34,0.00,,---,0.00,VWS V14.01,2013-09-07 02:09:00,
2013-09-07 12:10:00,83.3,52.0,29.85,WSW,248,7.6,7.6,34,0.00,,---,0.00,VWS V14.01,2013-09-07 02:10:00,
2013-09-07 12:11:00,83.3,52.0,29.85,WSW,248,7.6,7.6,34,0.00,,---,0.00,VWS V14.01,2013-09-07 02:11:00,
2013-09-07 12:12:00,83.3,52.0,29.85,WSW,248,7.6,7.6,34,0.00,,---,0.00,VWS V14.01,2013-09-07 02:12:00,
2013-09-07 12:13:00,83.3,52.0,29.85,WSW,248,7.6,7.6,34,0.00,,---,0.00,VWS V14.01,2013-09-07 02:13:00,
2013-09-07 12:14:00,83.5,52.2,29.85,WSW,248,7.6,7.6,34,0.00,,---,0.00,VWS V14.01,2013-09-07 02:14:00,
2013-09-07 12:15:00,83.3,52.0,29.85,WSW,248,7.6,7.6,34,0.00,,---,0.00,VWS V14.01,2013-09-07 02:15:00,
2013-09-07 12:16:00,83.3,52.0,29.85,WSW,248,7.6,7.6,34,0.00,,---,0.00,VWS V14.01,2013-09-07 02:16:00,
2013-09-07 12:17:00,83.3,51.2,29.85,WSW,248,7.6,7.6,33,0.00,,---,0.00,VWS V14.01,2013-09-07 02:17:00,
2013-09-07 12:18:00,83.3,51.2,29.85,WSW,248,7.6,7.6,33,0.00,,---,0.00,VWS V14.01,2013-09-07 02:18:00,
2013-09-07 12:19:00,83.3,51.2,29.85,WSW,248,7.6,7.6,33,0.00,,---,0.00,VWS V14.01,2013-09-07 02:19:00,
2013-09-07 12:20:00,83.3,51.2,29.85,WSW,248,7.6,7.6,33,0.00,,---,0.00,VWS V14.01,2013-09-07 02:20:00,
2013-09-07 12:21:00,83.5,51.4,29.85,WSW,248,7.6,7.6,33,0.00,,---,0.00,VWS V14.01,2013-09-07 02:21:00,
2013-09-07 12:22:00,83.7,51.5,29.85,WSW,248,7.6,7.6,33,0.00,,---,0.00,VWS V14.01,2013-09-07 02:22:00,
2013-09-07 12:23:00,83.7,51.5,29.85,WSW,248,7.6,7.6,33,0.00,,---,0.00,VWS V14.01,2013-09-07 02:23:00,
2013-09-07 12:24:00,83.7,51.5,29.85,WSW,248,7.6,7.6,33,0.00,,---,0.00,VWS V14.01,2013-09-07 02:24:00,
2013-09-07 12:25:00,83.7,51.5,29.85,WSW,248,7.6,7.6,33,0.00,,---,0.00,VWS V14.01,2013-09-07 02:25:00,
2013-09-07 12:26:00,83.5,51.4,29.85,NW,315,2.9,7.6,33,0.00,,---,0.00,VWS V14.01,2013-09-07 02:26:00,
2013-09-07 12:27:00,83.5,51.4,29.85,NW,315,2.9,7.6,33,0.00,,---,0.00,VWS V14.01,2013-09-07 02:27:00,
2013-09-07 12:28:00,83.5,51.4,29.85,NW,315,2.9,2.9,33,0.00,,---,0.00,VWS V14.01,2013-09-07 02:28:00,
2013-09-07 12:29:00,83.5,51.4,29.85,NW,315,2.9,2.9,33,0.00,,---,0.00,VWS V14.01,2013-09-07 02:29:00,
2013-09-07 12:30:00,83.5,51.4,29.85,NW,315,2.9,2.9,33,0.00,,---,0.00,VWS V14.01,2013-09-07 02:30:00,
2013-09-07 12:31:00,83.7,51.5,29.85,NW,315,2.9,2.9,33,0.00,,---,0.00,VWS V14.01,2013-09-07 02:31:00,
2013-09-07 12:32:00,83.7,51.5,29.85,NW,315,2.9,2.9,33,0.00,,---,0.00,VWS V14.01,2013-09-07 02:32:00,
2013-09-07 12:33:00,83.7,51.5,29.85,NW,315,2.9,2.9,33,0.00,,---,0.00,VWS V14.01,2013-09-07 02:33:00,
2013-09-07 12:34:00,83.7,51.5,29.85,NW,315,2.9,2.9,33,0.00,,---,0.00,VWS V14.01,2013-09-07 02:34:00,
2013-09-07 12:35:00,83.7,51.5,29.85,NW,315,2.9,2.9,33,0.00,,---,0.00,VWS V14.01,2013-09-07 02:35:00,
2013-09-07 12:36:00,83.8,51.7,29.85,NW,315,2.9,2.9,33,0.00,,---,0.00,VWS V14.01,2013-09-07 02:36:00,
2013-09-07 12:37:00,83.8,51.7,29.85,NW,315,2.9,2.9,33,0.00,,---,0.00,VWS V14.01,2013-09-07 02:37:00,
2013-09-07 12:38:00,84.0,51.8,29.85,NW,315,2.9,2.9,33,0.00,,---,0.00,VWS V14.01,2013-09-07 02:38:00,
2013-09-07 12:39:00,84.0,51.8,29.85,NW,315,2.9,2.9,33,0.00,,---,0.00,VWS V14.01,2013-09-07 02:39:00,
2013-09-07 12:40:00,84.0,51.8,29.85,NW,315,2.9,2.9,33,0.00,,---,0.00,VWS V14.01,2013-09-07 02:40:00,
2013-09-07 12:41:00,84.0,51.8,29.85,NW,315,2.9,2.9,33,0.00,,---,0.00,VWS V14.01,2013-09-07 02:41:00,
2013-09-07 12:42:00,84.0,51.8,29.85,NW,315,2.9,2.9,33,0.00,,---,0.00,VWS V14.01,2013-09-07 02:42:00,
2013-09-07 12:43:00,84.0,51.8,29.85,NW,315,2.9,2.9,33,0.00,,---,0.00,VWS V14.01,2013-09-07 02:43:00,
2013-09-07 12:44:00,83.8,51.7,29.85,NW,315,2.9,2.9,33,0.00,,---,0.00,VWS V14.01,2013-09-07 02:44:00,
2013-09-07 12:45:00,83.8,51.7,29.85,NW,315,2.9,2.9,33,0.00,,---,0.00,VWS V14.01,2013-09-07 02:45:00,
2013-09-07 12:46:00,83.7,51.5,29.82,NW,315,2.9,2.9,33,0.00,,---,0.00,VWS V14.01,2013-09-07 02:46:00,
2013-09-07 12:47:00,83.7,51.5,29.82,NW,315,2.9,2.9,33,0.00,,---,0.00,VWS V14.01,2013-09-07 02:47:00,
2013-09-07 12:48:00,83.7,51.5,29.82,NW,315,2.9,2.9,33,0.00,,---,0.00,VWS V14.01,2013-09-07 02:48:00,
2013-09-07 12:49:00,83.8,51.7,29.82,NW,315,2.9,2.9,33,0.00,,---,0.00,VWS V14.01,2013-09-07 02:49:00,
2013-09-07 12:50:00,83.8,51.7,29.82,NW,315,2.9,2.9,33,0.00,,---,0.00,VWS V14.01,2013-09-07 02:50:00,
2013-09-07 12:51:00,84.0,51.8,29.82,NW,315,2.9,2.9,33,0.00,,---,0.00,VWS V14.01,2013-09-07 02:51:00,
2013-09-07 12:52:00,84.2,51.2,29.82,NW,315,2.9,2.9,32,0.00,,---,0.00,VWS V14.01,2013-09-07 02:52:00,
2013-09-07 12:53:00,84.2,51.2,29.82,NW,315,2.9,2.9,32,0.00,,---,0.00,VWS V14.01,2013-09-07 02:53:00,
2013-09-07 12:54:00,84.2,51.2,29.82,NW,315,2.9,2.9,32,0.00,,---,0.00,VWS V14.01,2013-09-07 02:54:00,
2013-09-07 12:55:00,84.2,51.2,29.82,NW,315,2.9,2.9,32,0.00,,---,0.00,VWS V14.01,2013-09-07 02:55:00,
2013-09-07 12:56:00,84.2,51.2,29.82,NW,315,2.9,2.9,32,0.00,,---,0.00,VWS V14.01,2013-09-07 02:56:00,
2013-09-07 12:57:00,84.2,51.2,29.82,NW,315,2.9,2.9,32,0.00,,---,0.00,VWS V14.01,2013-09-07 02:57:00,
2013-09-07 12:58:00,84.4,51.3,29.82,NW,315,2.9,2.9,32,0.00,,---,0.00,VWS V14.01,2013-09-07 02:58:00,
2013-09-07 12:59:00,84.4,51.3,29.82,NW,315,2.9,2.9,32,0.00,,---,0.00,VWS V14.01,2013-09-07 02:59:00,
2013-09-07 13:00:00,84.6,51.5,29.82,NW,315,2.9,2.9,32,0.00,,---,0.00,VWS V14.01,2013-09-07 03:00:00,
2013-09-07 13:01:00,84.9,51.8,29.82,NW,315,2.9,2.9,32,0.00,,---,0.00,VWS V14.01,2013-09-07 03:01:00,
2013-09-07 13:02:00,84.9,51.8,29.82,NW,315,2.9,2.9,32,0.00,,---,0.00,VWS V14.01,2013-09-07 03:02:00,
2013-09-07 13:03:00,84.9,51.8,29.82,NW,315,2.9,2.9,32,0.00,,---,0.00,VWS V14.01,2013-09-07 03:03:00,
2013-09-07 13:04:00,84.9,51.8,29.82,NW,315,2.9,2.9,32,0.00,,---,0.00,VWS V14.01,2013-09-07 03:04:00,
2013-09-07 13:05:00,85.1,52.0,29.82,NW,315,2.9,2.9,32,0.00,,---,0.00,VWS V14.01,2013-09-07 03:05:00,
2013-09-07 13:06:00,85.1,52.0,29.82,NW,315,2.9,2.9,32,0.00,,---,0.00,VWS V14.01,2013-09-07 03:06:00,
2013-09-07 13:07:00,85.1,52.0,29.82,NW,315,2.9,2.9,32,0.00,,---,0.00,VWS V14.01,2013-09-07 03:07:00,
2013-09-07 13:08:00,85.3,52.1,29.82,NW,315,2.9,2.9,32,0.00,,---,0.00,VWS V14.01,2013-09-07 03:08:00,
2013-09-07 13:09:00,85.3,52.1,29.82,NW,315,2.9,2.9,32,0.00,,---,0.00,VWS V14.01,2013-09-07 03:09:00,
2013-09-07 13:10:00,85.3,52.1,29.82,NW,315,2.9,2.9,32,0.00,,---,0.00,VWS V14.01,2013-09-07 03:10:00,
2013-09-07 13:11:00,85.1,52.0,29.82,NW,315,2.9,2.9,32,0.00,,---,0.00,VWS V14.01,2013-09-07 03:11:00,
2013-09-07 13:12:00,85.1,52.0,29.82,NW,315,2.9,2.9,32,0.00,,---,0.00,VWS V14.01,2013-09-07 03:12:00,
2013-09-07 13:13:00,85.1,52.0,29.82,NW,315,2.9,2.9,32,0.00,,---,0.00,VWS V14.01,2013-09-07 03:13:00,
2013-09-07 13:14:00,84.9,51.8,29.82,NW,315,2.9,2.9,32,0.00,,---,0.00,VWS V14.01,2013-09-07 03:14:00,
2013-09-07 13:15:00,84.9,51.8,29.82,NW,315,2.9,2.9,32,0.00,,---,0.00,VWS V14.01,2013-09-07 03:15:00,
2013-09-07 13:16:00,84.9,51.8,29.82,NW,315,2.9,2.9,32,0.00,,---,0.00,VWS V14.01,2013-09-07 03:16:00,
2013-09-07 13:17:00,84.7,50.8,29.82,NW,315,2.9,2.9,31,0.00,,---,0.00,VWS V14.01,2013-09-07 03:17:00,
2013-09-07 13:18:00,84.7,50.8,29.82,NW,315,2.9,2.9,31,0.00,,---,0.00,VWS V14.01,2013-09-07 03:18:00,
2013-09-07 13:19:00,84.7,51.7,29.82,NW,315,2.9,2.9,32,0.00,,---,0.00,VWS V14.01,2013-09-07 03:19:00,
2013-09-07 13:20:00,84.7,51.7,29.82,NW,315,2.9,2.9,32,0.00,,---,0.00,VWS V14.01,2013-09-07 03:20:00,
2013-09-07 13:21:00,84.7,51.6,29.82,NW,315,2.9,2.9,32,0.00,,---,0.00,VWS V14.01,2013-09-07 03:21:00,
2013-09-07 13:22:00,84.7,50.8,29.82,NW,315,2.9,2.9,31,0.00,,---,0.00,VWS V14.01,2013-09-07 03:22:00,
2013-09-07 13:23:00,84.7,50.8,29.82,NW,315,2.9,2.9,31,0.00,,---,0.00,VWS V14.01,2013-09-07 03:23:00,
2013-09-07 13:24:00,84.6,50.6,29.82,NW,315,2.9,2.9,31,0.00,,---,0.00,VWS V14.01,2013-09-07 03:24:00,
2013-09-07 13:25:00,84.6,50.6,29.82,WSW,248,4.0,4.0,31,0.00,,---,0.00,VWS V14.01,2013-09-07 03:25:00,
2013-09-07 13:26:00,84.6,50.6,29.82,WSW,248,4.0,4.0,31,0.00,,---,0.00,VWS V14.01,2013-09-07 03:26:00,
2013-09-07 13:27:00,84.6,50.6,29.82,WSW,248,4.0,4.0,31,0.00,,---,0.00,VWS V14.01,2013-09-07 03:27:00,
2013-09-07 13:28:00,84.6,50.6,29.82,WSW,248,4.0,4.0,31,0.00,,---,0.00,VWS V14.01,2013-09-07 03:28:00,
2013-09-07 13:29:00,84.6,50.6,29.82,WSW,248,4.0,4.0,31,0.00,,---,0.00,VWS V14.01,2013-09-07 03:29:00,
2013-09-07 13:30:00,84.6,50.6,29.82,WSW,248,4.0,4.0,31,0.00,,---,0.00,VWS V14.01,2013-09-07 03:30:00,
2013-09-07 13:31:00,84.6,50.6,29.82,WSW,248,4.0,4.0,31,0.00,,---,0.00,VWS V14.01,2013-09-07 03:31:00,
2013-09-07 13:32:00,84.6,50.6,29.82,WSW,248,4.0,4.0,31,0.00,,---,0.00,VWS V14.01,2013-09-07 03:32:00,
2013-09-07 13:33:00,84.6,50.6,29.82,WSW,248,4.0,4.0,31,0.00,,---,0.00,VWS V14.01,2013-09-07 03:33:00,
2013-09-07 13:34:00,84.6,50.6,29.82,WSW,248,4.0,4.0,31,0.00,,---,0.00,VWS V14.01,2013-09-07 03:34:00,
2013-09-07 13:36:00,84.6,50.6,29.82,WSW,248,4.0,4.0,31,0.00,,---,0.00,VWS V14.01,2013-09-07 03:36:00,
2013-09-07 13:37:00,84.6,50.6,29.82,WSW,248,4.0,4.0,31,0.00,,---,0.00,VWS V14.01,2013-09-07 03:37:00,
2013-09-07 13:38:00,84.6,50.6,29.82,WSW,248,4.0,4.0,31,0.00,,---,0.00,VWS V14.01,2013-09-07 03:38:00,
2013-09-07 13:39:00,84.6,50.6,29.82,NW,315,2.9,4.0,31,0.00,,---,0.00,VWS V14.01,2013-09-07 03:39:00,
2013-09-07 13:40:00,84.6,50.6,29.82,WSW,248,7.8,7.8,31,0.00,,---,0.00,VWS V14.01,2013-09-07 03:40:00,
2013-09-07 13:41:00,84.6,50.6,29.82,WSW,248,7.8,7.8,31,0.00,,---,0.00,VWS V14.01,2013-09-07 03:41:00,
2013-09-07 13:42:00,84.6,50.6,29.82,WSW,248,7.8,7.8,31,0.00,,---,0.00,VWS V14.01,2013-09-07 03:42:00,
2013-09-07 13:43:00,84.6,50.6,29.82,WSW,248,7.8,7.8,31,0.00,,---,0.00,VWS V14.01,2013-09-07 03:43:00,
2013-09-07 13:44:00,84.7,50.8,29.82,West,270,7.2,7.8,31,0.00,,---,0.00,VWS V14.01,2013-09-07 03:44:00,
2013-09-07 13:45:00,84.7,50.8,29.82,West,270,7.2,7.2,31,0.00,,---,0.00,VWS V14.01,2013-09-07 03:45:00,
2013-09-07 13:46:00,84.9,50.9,29.82,West,270,7.2,7.2,31,0.00,,---,0.00,VWS V14.01,2013-09-07 03:46:00,
2013-09-07 13:47:00,85.1,51.1,29.82,West,270,7.2,7.2,31,0.00,,---,0.00,VWS V14.01,2013-09-07 03:47:00,
2013-09-07 13:48:00,85.1,51.1,29.82,SW,225,2.9,7.2,31,0.00,,---,0.00,VWS V14.01,2013-09-07 03:48:00,
2013-09-07 13:49:00,84.9,50.9,29.82,SW,225,2.9,2.9,31,0.00,,---,0.00,VWS V14.01,2013-09-07 03:49:00,
2013-09-07 13:50:00,84.9,50.9,29.82,SW,225,2.9,2.9,31,0.00,,---,0.00,VWS V14.01,2013-09-07 03:50:00,
2013-09-07 13:51:00,84.7,50.8,29.82,SW,225,2.9,2.9,31,0.00,,---,0.00,VWS V14.01,2013-09-07 03:51:00,
2013-09-07 13:52:00,84.7,50.8,29.82,SW,225,2.9,2.9,31,0.00,,---,0.00,VWS V14.01,2013-09-07 03:52:00,
2013-09-07 13:53:00,84.7,50.8,29.82,SW,225,2.9,2.9,31,0.00,,---,0.00,VWS V14.01,2013-09-07 03:53:00,
2013-09-07 13:54:00,84.7,50.8,29.82,SW,225,2.9,2.9,31,0.00,,---,0.00,VWS V14.01,2013-09-07 03:54:00,
2013-09-07 13:55:00,84.6,50.6,29.82,SW,225,2.9,2.9,31,0.00,,---,0.00,VWS V14.01,2013-09-07 03:55:00,
2013-09-07 13:56:00,84.6,50.6,29.82,SW,225,2.9,2.9,31,0.00,,---,0.00,VWS V14.01,2013-09-07 03:56:00,
2013-09-07 13:57:00,84.6,50.6,29.82,SW,225,2.9,2.9,31,0.00,,---,0.00,VWS V14.01,2013-09-07 03:57:00,
2013-09-07 13:58:00,84.6,50.6,29.82,SW,225,2.9,2.9,31,0.00,,---,0.00,VWS V14.01,2013-09-07 03:58:00,
2013-09-07 13:59:00,84.6,50.6,29.82,SW,225,2.9,2.9,31,0.00,,---,0.00,VWS V14.01,2013-09-07 03:59:00,
2013-09-07 14:00:00,84.6,50.6,29.82,SW,225,2.9,2.9,31,0.00,,---,0.00,VWS V14.01,2013-09-07 04:00:00,
2013-09-07 14:01:00,84.6,50.6,29.82,SW,225,2.9,2.9,31,0.00,,---,0.00,VWS V14.01,2013-09-07 04:01:00,
2013-09-07 14:02:00,84.6,50.6,29.82,SW,225,2.9,2.9,31,0.00,,---,0.00,VWS V14.01,2013-09-07 04:02:00,
2013-09-07 14:03:00,84.4,50.5,29.79,SW,225,2.9,2.9,31,0.00,,---,0.00,VWS V14.01,2013-09-07 04:03:00,
2013-09-07 14:04:00,84.4,50.5,29.79,SW,225,2.9,2.9,31,0.00,,---,0.00,VWS V14.01,2013-09-07 04:04:00,
2013-09-07 14:05:00,84.4,50.5,29.79,SW,225,2.9,2.9,31,0.00,,---,0.00,VWS V14.01,2013-09-07 04:05:00,
2013-09-07 14:06:00,84.4,50.5,29.79,SW,225,2.9,2.9,31,0.00,,---,0.00,VWS V14.01,2013-09-07 04:06:00,
2013-09-07 14:07:00,84.4,50.5,29.79,SW,225,2.9,2.9,31,0.00,,---,0.00,VWS V14.01,2013-09-07 04:07:00,
2013-09-07 14:08:00,84.4,50.5,29.79,SW,225,2.9,2.9,31,0.00,,---,0.00,VWS V14.01,2013-09-07 04:08:00,
2013-09-07 14:09:00,84.4,50.5,29.79,SW,225,2.9,2.9,31,0.00,,---,0.00,VWS V14.01,2013-09-07 04:09:00,
2013-09-07 14:10:00,84.6,50.6,29.79,SW,225,2.9,2.9,31,0.00,,---,0.00,VWS V14.01,2013-09-07 04:10:00,
2013-09-07 14:11:00,84.6,50.6,29.79,SW,225,2.9,2.9,31,0.00,,---,0.00,VWS V14.01,2013-09-07 04:11:00,
2013-09-07 14:12:00,84.6,50.6,29.79,SW,225,2.9,2.9,31,0.00,,---,0.00,VWS V14.01,2013-09-07 04:12:00,
2013-09-07 14:13:00,84.6,50.6,29.79,SW,225,2.9,2.9,31,0.00,,---,0.00,VWS V14.01,2013-09-07 04:13:00,
2013-09-07 14:14:00,84.6,50.6,29.79,SW,225,2.9,2.9,31,0.00,,---,0.00,VWS V14.01,2013-09-07 04:14:00,
2013-09-07 14:15:00,84.6,49.8,29.79,SW,225,2.9,2.9,30,0.00,,---,0.00,VWS V14.01,2013-09-07 04:15:00,
2013-09-07 14:16:00,84.6,49.8,29.79,SW,225,2.9,2.9,30,0.00,,---,0.00,VWS V14.01,2013-09-07 04:16:00,
2013-09-07 14:17:00,84.6,49.8,29.79,SW,225,2.9,2.9,30,0.00,,---,0.00,VWS V14.01,2013-09-07 04:17:00,